Inmocean — ZCXX2 — position and weather

sailwx.info

Track history (hours):
 
Tides and Currents Weather Stations Pressure Air Temp Water Temp Dewpoint Dewpoint Depression Visibility Wind Speed Wind Dir Waves Ship Positions

Inmocean

Last reported at 2015-Jul-06 23:31 UTC. Time now 2015-Jul-08 06:37 UTC.
Position N 40°43' E 014°28'.

Type: Sailing vessel. MMSI: 319120000.

Date/timePositionNaut miles runAvg speedWind from/ knotsBaromVisibWave heightAir tempDewpointWater temp
2015-Jul-06 23:31N 40°43' E 014°28'0 0.0
2015-Jul-05 21:19N 40°43' E 014°28'0 0.0
2015-Jul-05 20:19N 40°43' E 014°28'0 0.0
2015-Jul-05 15:16N 40°43' E 014°28'0 0.0
2015-Jul-05 13:22N 40°43' E 014°28'0 0.0
2015-Jul-05 12:31N 40°43' E 014°28'0 0.0
2015-Jul-05 11:28N 40°43' E 014°28'0 0.0
2015-Jul-05 10:16N 40°43' E 014°28'0 0.0
2015-Jul-05 08:28N 40°43' E 014°28'0 0.0
2015-Jul-05 07:28N 40°43' E 014°28'0 0.0
2015-Jul-05 06:07N 40°43' E 014°28'0 0.0
2015-Jul-05 04:31N 40°43' E 014°28'0 0.0
2015-Jul-05 03:25N 40°43' E 014°28'0 0.0
2015-Jul-05 02:25N 40°43' E 014°28'0 0.0
2015-Jul-05 01:28N 40°43' E 014°28'0 0.0
2015-Jul-05 00:31N 40°43' E 014°28'0 0.0
2015-Jul-04 23:10N 40°43' E 014°28'0 0.0
2015-Jul-04 22:31N 40°43' E 014°28'0 0.0
2015-Jul-04 21:22N 40°43' E 014°28'0 0.0
2015-Jul-04 20:28N 40°43' E 014°28'0 0.0
2015-Jul-04 19:19N 40°43' E 014°28'0 0.0
2015-Jul-04 18:31N 40°43' E 014°28'0 0.0
2015-Jul-04 17:31N 40°43' E 014°28'4 4.5
2015-Jul-04 16:34N 40°40' E 014°24'8 8.2
2015-Jul-04 15:34N 40°34' E 014°17'3 2.8
2015-Jul-04 14:32N 40°32' E 014°14'2 2.1
2015-Jul-04 13:33N 40°33' E 014°16'8 8.1
2015-Jul-04 12:31N 40°42' E 014°15'8 7.7
2015-Jul-04 11:31N 40°50' E 014°14'0 0.0
2015-Jul-04 10:31N 40°50' E 014°14'5 0.3
2015-Jul-03 17:33N 40°46' E 014°09'6 5.5
2015-Jul-03 16:32N 40°45' E 014°02'0 0.0
2015-Jul-03 15:32N 40°45' E 014°02'0 0.0
2015-Jul-03 14:32N 40°45' E 014°02'0 0.0
2015-Jul-03 13:32N 40°45' E 014°02'0 0.0
2015-Jul-03 12:32N 40°45' E 014°02'0 0.0
2015-Jul-03 11:32N 40°45' E 014°02'1 0.8
2015-Jul-03 10:33N 40°45' E 014°02'3 2.4
2015-Jul-03 09:21N 40°44' E 013°58'0 0.1
2015-Jul-03 08:33N 40°44' E 013°58'0 0.0
2015-Jul-03 07:33N 40°44' E 013°58'0 0.0
2015-Jul-03 06:33N 40°44' E 013°58'0 0.0
2015-Jul-03 05:33N 40°44' E 013°58'0 0.0
2015-Jul-03 04:33N 40°44' E 013°58'0 0.0
2015-Jul-03 03:33N 40°44' E 013°58'0 0.0
2015-Jul-03 02:33N 40°44' E 013°58'0 0.0
2015-Jul-03 01:33N 40°44' E 013°58'0 0.0
2015-Jul-03 00:33N 40°44' E 013°58'0 0.0
2015-Jul-02 23:33N 40°44' E 013°58'0 0.0
2015-Jul-02 22:33N 40°44' E 013°58'0 0.0
2015-Jul-02 21:33N 40°44' E 013°58'0 0.0
2015-Jul-02 20:27N 40°44' E 013°58'0 0.0
2015-Jul-02 19:33N 40°44' E 013°58'0 0.0
2015-Jul-02 18:30N 40°44' E 013°58'1 0.7
2015-Jul-02 17:33N 40°44' E 013°58'4 3.7
2015-Jul-02 16:31N 40°46' E 013°53'0 0.0
2015-Jul-02 15:31N 40°46' E 013°53'0 0.0
2015-Jul-02 14:28N 40°46' E 013°53'0 0.0
2015-Jul-02 13:31N 40°46' E 013°53'0 0.0
2015-Jul-02 12:28N 40°46' E 013°53'0 0.0
2015-Jul-02 11:28N 40°46' E 013°53'0 0.0
2015-Jul-02 10:31N 40°46' E 013°53'0 0.0
2015-Jul-02 09:31N 40°45' E 013°53'0 0.0
2015-Jul-02 08:25N 40°45' E 013°53'0 0.0
2015-Jul-02 07:31N 40°45' E 013°53'0 0.0
2015-Jul-02 06:31N 40°45' E 013°53'0 0.0
2015-Jul-02 05:31N 40°46' E 013°53'0 0.0
2015-Jul-02 04:28N 40°46' E 013°53'0 0.0
2015-Jul-02 03:31N 40°46' E 013°53'0 0.0
2015-Jul-02 02:31N 40°46' E 013°53'0 0.0
2015-Jul-02 01:31N 40°46' E 013°53'0 0.0
2015-Jul-02 00:28N 40°46' E 013°53'0 0.0
2015-Jul-01 23:28N 40°46' E 013°53'0 0.0
2015-Jul-01 22:31N 40°45' E 013°53'0 0.0
2015-Jul-01 21:31N 40°46' E 013°53'0 0.0
2015-Jul-01 20:25N 40°46' E 013°53'2 1.9
2015-Jul-01 19:33N 40°45' E 013°51'0 0.0
2015-Jul-01 18:33N 40°45' E 013°51'0 0.0
2015-Jul-01 17:33N 40°45' E 013°51'3 2.9
2015-Jul-01 16:28N 40°42' E 013°53'1 0.3
2015-Jul-01 12:24N 40°42' E 013°54'3 3.9
2015-Jul-01 11:33N 40°43' E 013°58'2 1.8
2015-Jul-01 10:29N 40°45' E 013°57'7 7.9
2015-Jul-01 09:33N 40°40' E 014°05'9 8.8
2015-Jul-01 08:33N 40°34' E 014°13'1 0.6
2015-Jul-01 07:16N 40°34' E 014°14'0 0.0
2015-Jul-01 06:13N 40°34' E 014°14'0 0.0
2015-Jul-01 05:25N 40°34' E 014°14'0 0.0
2015-Jul-01 04:22N 40°34' E 014°14'0 0.0
2015-Jul-01 03:31N 40°34' E 014°14'0 0.0
2015-Jul-01 02:31N 40°34' E 014°14'0 0.0
2015-Jul-01 01:28N 40°34' E 014°14'0 0.0
2015-Jul-01 00:28N 40°34' E 014°14'0 0.0
2015-Jun-30 23:31N 40°34' E 014°14'0 0.1
2015-Jun-30 22:16N 40°34' E 014°14'0 0.0
2015-Jun-30 21:31N 40°34' E 014°14'0 0.0
2015-Jun-30 20:31N 40°34' E 014°14'0 0.0
2015-Jun-30 19:31N 40°34' E 014°14'0 0.0
2015-Jun-30 18:13N 40°34' E 014°14'0 0.1
2015-Jun-30 12:26N 40°33' E 014°15'0 0.0
2015-Jun-30 10:32N 40°33' E 014°15'0 0.0
2015-Jun-30 02:23N 40°33' E 014°15'0 0.0
2015-Jun-30 01:26N 40°33' E 014°15'0 0.0
2015-Jun-30 00:32N 40°33' E 014°15'0 0.0
2015-Jun-29 23:29N 40°33' E 014°15'0 0.0
2015-Jun-29 22:32N 40°33' E 014°15'0 0.0
2015-Jun-29 20:32N 40°33' E 014°15'0 0.0
2015-Jun-29 19:14N 40°33' E 014°15'0 0.0
2015-Jun-29 17:03N 40°33' E 014°15'  
2015-Jun-27 12:16N 40°34' E 014°19'6 9.0
2015-Jun-27 11:33N 40°40' E 014°17'  
Track history (hours):
 
Tides and Currents Weather Stations Pressure Air Temp Water Temp Dewpoint Dewpoint Depression Visibility Wind Speed Wind Dir Waves Ship Positions

Inmocean

Last reported at 2015-Jul-06 23:31 UTC. Time now 2015-Jul-08 06:37 UTC.
Position N 40°43' E 014°28'.

Type: Sailing vessel. MMSI: 319120000.

Date/timePositionNaut miles runAvg speedWind from/ knotsBaromVisibWave heightAir tempDewpointWater temp
2015-Jul-06 23:31N 40°43' E 014°28'0 0.0
2015-Jul-05 21:19N 40°43' E 014°28'0 0.0
2015-Jul-05 20:19N 40°43' E 014°28'0 0.0
2015-Jul-05 15:16N 40°43' E 014°28'0 0.0
2015-Jul-05 13:22N 40°43' E 014°28'0 0.0
2015-Jul-05 12:31N 40°43' E 014°28'0 0.0
2015-Jul-05 11:28N 40°43' E 014°28'0 0.0
2015-Jul-05 10:16N 40°43' E 014°28'0 0.0
2015-Jul-05 08:28N 40°43' E 014°28'0 0.0
2015-Jul-05 07:28N 40°43' E 014°28'0 0.0
2015-Jul-05 06:07N 40°43' E 014°28'0 0.0
2015-Jul-05 04:31N 40°43' E 014°28'0 0.0
2015-Jul-05 03:25N 40°43' E 014°28'0 0.0
2015-Jul-05 02:25N 40°43' E 014°28'0 0.0
2015-Jul-05 01:28N 40°43' E 014°28'0 0.0
2015-Jul-05 00:31N 40°43' E 014°28'0 0.0
2015-Jul-04 23:10N 40°43' E 014°28'0 0.0
2015-Jul-04 22:31N 40°43' E 014°28'0 0.0
2015-Jul-04 21:22N 40°43' E 014°28'0 0.0
2015-Jul-04 20:28N 40°43' E 014°28'0 0.0
2015-Jul-04 19:19N 40°43' E 014°28'0 0.0
2015-Jul-04 18:31N 40°43' E 014°28'0 0.0
2015-Jul-04 17:31N 40°43' E 014°28'4 4.5
2015-Jul-04 16:34N 40°40' E 014°24'8 8.2
2015-Jul-04 15:34N 40°34' E 014°17'3 2.8
2015-Jul-04 14:32N 40°32' E 014°14'2 2.1
2015-Jul-04 13:33N 40°33' E 014°16'8 8.1
2015-Jul-04 12:31N 40°42' E 014°15'8 7.7
2015-Jul-04 11:31N 40°50' E 014°14'0 0.0
2015-Jul-04 10:31N 40°50' E 014°14'5 0.3
2015-Jul-03 17:33N 40°46' E 014°09'6 5.5
2015-Jul-03 16:32N 40°45' E 014°02'0 0.0
2015-Jul-03 15:32N 40°45' E 014°02'0 0.0
2015-Jul-03 14:32N 40°45' E 014°02'0 0.0
2015-Jul-03 13:32N 40°45' E 014°02'0 0.0
2015-Jul-03 12:32N 40°45' E 014°02'0 0.0
2015-Jul-03 11:32N 40°45' E 014°02'1 0.8
2015-Jul-03 10:33N 40°45' E 014°02'3 2.4
2015-Jul-03 09:21N 40°44' E 013°58'0 0.1
2015-Jul-03 08:33N 40°44' E 013°58'0 0.0
2015-Jul-03 07:33N 40°44' E 013°58'0 0.0
2015-Jul-03 06:33N 40°44' E 013°58'0 0.0
2015-Jul-03 05:33N 40°44' E 013°58'0 0.0
2015-Jul-03 04:33N 40°44' E 013°58'0 0.0
2015-Jul-03 03:33N 40°44' E 013°58'0 0.0
2015-Jul-03 02:33N 40°44' E 013°58'0 0.0
2015-Jul-03 01:33N 40°44' E 013°58'0 0.0
2015-Jul-03 00:33N 40°44' E 013°58'0 0.0
2015-Jul-02 23:33N 40°44' E 013°58'0 0.0
2015-Jul-02 22:33N 40°44' E 013°58'0 0.0
2015-Jul-02 21:33N 40°44' E 013°58'0 0.0
2015-Jul-02 20:27N 40°44' E 013°58'0 0.0
2015-Jul-02 19:33N 40°44' E 013°58'0 0.0
2015-Jul-02 18:30N 40°44' E 013°58'1 0.7
2015-Jul-02 17:33N 40°44' E 013°58'4 3.7
2015-Jul-02 16:31N 40°46' E 013°53'0 0.0
2015-Jul-02 15:31N 40°46' E 013°53'0 0.0
2015-Jul-02 14:28N 40°46' E 013°53'0 0.0
2015-Jul-02 13:31N 40°46' E 013°53'0 0.0
2015-Jul-02 12:28N 40°46' E 013°53'0 0.0
2015-Jul-02 11:28N 40°46' E 013°53'0 0.0
2015-Jul-02 10:31N 40°46' E 013°53'0 0.0
2015-Jul-02 09:31N 40°45' E 013°53'0 0.0
2015-Jul-02 08:25N 40°45' E 013°53'0 0.0
2015-Jul-02 07:31N 40°45' E 013°53'0 0.0
2015-Jul-02 06:31N 40°45' E 013°53'0 0.0
2015-Jul-02 05:31N 40°46' E 013°53'0 0.0
2015-Jul-02 04:28N 40°46' E 013°53'0 0.0
2015-Jul-02 03:31N 40°46' E 013°53'0 0.0
2015-Jul-02 02:31N 40°46' E 013°53'0 0.0
2015-Jul-02 01:31N 40°46' E 013°53'0 0.0
2015-Jul-02 00:28N 40°46' E 013°53'0 0.0
2015-Jul-01 23:28N 40°46' E 013°53'0 0.0
2015-Jul-01 22:31N 40°45' E 013°53'0 0.0
2015-Jul-01 21:31N 40°46' E 013°53'0 0.0
2015-Jul-01 20:25N 40°46' E 013°53'2 1.9
2015-Jul-01 19:33N 40°45' E 013°51'0 0.0
2015-Jul-01 18:33N 40°45' E 013°51'0 0.0
2015-Jul-01 17:33N 40°45' E 013°51'3 2.9
2015-Jul-01 16:28N 40°42' E 013°53'1 0.3
2015-Jul-01 12:24N 40°42' E 013°54'3 3.9
2015-Jul-01 11:33N 40°43' E 013°58'2 1.8
2015-Jul-01 10:29N 40°45' E 013°57'7 7.9
2015-Jul-01 09:33N 40°40' E 014°05'9 8.8
2015-Jul-01 08:33N 40°34' E 014°13'1 0.6
2015-Jul-01 07:16N 40°34' E 014°14'0 0.0
2015-Jul-01 06:13N 40°34' E 014°14'0 0.0
2015-Jul-01 05:25N 40°34' E 014°14'0 0.0
2015-Jul-01 04:22N 40°34' E 014°14'0 0.0
2015-Jul-01 03:31N 40°34' E 014°14'0 0.0
2015-Jul-01 02:31N 40°34' E 014°14'0 0.0
2015-Jul-01 01:28N 40°34' E 014°14'0 0.0
2015-Jul-01 00:28N 40°34' E 014°14'0 0.0
2015-Jun-30 23:31N 40°34' E 014°14'0 0.1
2015-Jun-30 22:16N 40°34' E 014°14'0 0.0
2015-Jun-30 21:31N 40°34' E 014°14'0 0.0
2015-Jun-30 20:31N 40°34' E 014°14'0 0.0
2015-Jun-30 19:31N 40°34' E 014°14'0 0.0
2015-Jun-30 18:13N 40°34' E 014°14'0 0.1
2015-Jun-30 12:26N 40°33' E 014°15'0 0.0
2015-Jun-30 10:32N 40°33' E 014°15'0 0.0
2015-Jun-30 02:23N 40°33' E 014°15'0 0.0
2015-Jun-30 01:26N 40°33' E 014°15'0 0.0
2015-Jun-30 00:32N 40°33' E 014°15'0 0.0
2015-Jun-29 23:29N 40°33' E 014°15'0 0.0
2015-Jun-29 22:32N 40°33' E 014°15'0 0.0
2015-Jun-29 20:32N 40°33' E 014°15'0 0.0
2015-Jun-29 19:14N 40°33' E 014°15'0 0.0
2015-Jun-29 17:03N 40°33' E 014°15'  
2015-Jun-27 12:16N 40°34' E 014°19'6 9.0
2015-Jun-27 11:33N 40°40' E 014°17'  

Dump ship's entire track history